sensor_id;sensor_type;location;lat;lon;timestamp;temperature;humidity
14397;DHT22;50653;47.810;13.022;2023-11-21T00:02:13;10.00;99.90
14397;DHT22;50653;47.810;13.022;2023-11-21T00:04:39;9.90;99.90
14397;DHT22;50653;47.810;13.022;2023-11-21T00:07:05;9.90;99.90
14397;DHT22;50653;47.810;13.022;2023-11-21T00:09:32;9.80;99.90
14397;DHT22;50653;47.810;13.022;2023-11-21T00:11:58;9.80;99.90
14397;DHT22;50653;47.810;13.022;2023-11-21T00:14:25;9.80;99.90
14397;DHT22;50653;47.810;13.022;2023-11-21T00:16:51;9.90;99.90
14397;DHT22;50653;47.810;13.022;2023-11-21T00:19:17;9.80;99.90
14397;DHT22;50653;47.810;13.022;2023-11-21T00:21:42;9.90;99.90
14397;DHT22;50653;47.810;13.022;2023-11-21T00:24:12;9.80;99.90
14397;DHT22;50653;47.810;13.022;2023-11-21T00:26:42;9.80;99.90
14397;DHT22;50653;47.810;13.022;2023-11-21T00:29:08;9.80;99.90
14397;DHT22;50653;47.810;13.022;2023-11-21T00:31:34;9.90;99.90
14397;DHT22;50653;47.810;13.022;2023-11-21T00:34:03;9.90;99.90
14397;DHT22;50653;47.810;13.022;2023-11-21T00:36:33;9.80;99.90
14397;DHT22;50653;47.810;13.022;2023-11-21T00:39:00;9.90;99.90
14397;DHT22;50653;47.810;13.022;2023-11-21T00:41:32;10.00;99.90
14397;DHT22;50653;47.810;13.022;2023-11-21T00:43:57;10.00;99.90
14397;DHT22;50653;47.810;13.022;2023-11-21T00:46:25;10.00;99.90
14397;DHT22;50653;47.810;13.022;2023-11-21T00:48:52;9.90;99.90
14397;DHT22;50653;47.810;13.022;2023-11-21T00:51:20;9.90;99.90
14397;DHT22;50653;47.810;13.022;2023-11-21T00:53:47;9.90;99.90
14397;DHT22;50653;47.810;13.022;2023-11-21T00:56:12;9.80;99.90
14397;DHT22;50653;47.810;13.022;2023-11-21T00:58:39;9.90;99.90
14397;DHT22;50653;47.810;13.022;2023-11-21T01:01:08;9.90;99.90
14397;DHT22;50653;47.810;13.022;2023-11-21T01:03:33;9.80;99.90
14397;DHT22;50653;47.810;13.022;2023-11-21T01:05:59;9.80;99.90
14397;DHT22;50653;47.810;13.022;2023-11-21T01:08:25;9.80;99.90
14397;DHT22;50653;47.810;13.022;2023-11-21T01:10:51;9.70;99.90
14397;DHT22;50653;47.810;13.022;2023-11-21T01:13:17;9.70;99.90
14397;DHT22;50653;47.810;13.022;2023-11-21T01:15:43;9.80;99.90
14397;DHT22;50653;47.810;13.022;2023-11-21T01:18:09;9.80;99.90
14397;DHT22;50653;47.810;13.022;2023-11-21T01:20:35;9.80;99.90
14397;DHT22;50653;47.810;13.022;2023-11-21T01:23:01;9.70;99.90
14397;DHT22;50653;47.810;13.022;2023-11-21T01:25:27;9.70;99.90
14397;DHT22;50653;47.810;13.022;2023-11-21T01:27:53;9.70;99.90
14397;DHT22;50653;47.810;13.022;2023-11-21T01:30:18;9.70;99.90
14397;DHT22;50653;47.810;13.022;2023-11-21T01:32:45;9.70;99.90
14397;DHT22;50653;47.810;13.022;2023-11-21T01:35:11;9.50;99.90
14397;DHT22;50653;47.810;13.022;2023-11-21T01:37:37;9.60;99.90
14397;DHT22;50653;47.810;13.022;2023-11-21T01:40:04;9.60;99.90
14397;DHT22;50653;47.810;13.022;2023-11-21T01:42:35;9.60;99.90
14397;DHT22;50653;47.810;13.022;2023-11-21T01:45:01;9.50;99.90
14397;DHT22;50653;47.810;13.022;2023-11-21T01:47:31;9.60;99.90
14397;DHT22;50653;47.810;13.022;2023-11-21T01:49:58;9.70;99.90
14397;DHT22;50653;47.810;13.022;2023-11-21T01:52:24;9.70;99.90
14397;DHT22;50653;47.810;13.022;2023-11-21T01:54:50;9.60;99.90
14397;DHT22;50653;47.810;13.022;2023-11-21T01:57:16;9.50;99.90
14397;DHT22;50653;47.810;13.022;2023-11-21T01:59:43;9.50;99.90
14397;DHT22;50653;47.810;13.022;2023-11-21T02:02:10;9.40;99.90
14397;DHT22;50653;47.810;13.022;2023-11-21T02:04:37;9.50;99.90
14397;DHT22;50653;47.810;13.022;2023-11-21T02:07:03;9.50;99.90
14397;DHT22;50653;47.810;13.022;2023-11-21T02:09:31;9.50;99.90
14397;DHT22;50653;47.810;13.022;2023-11-21T02:11:58;9.40;99.90
14397;DHT22;50653;47.810;13.022;2023-11-21T02:14:28;9.40;99.90
14397;DHT22;50653;47.810;13.022;2023-11-21T02:16:54;9.40;99.90
14397;DHT22;50653;47.810;13.022;2023-11-21T02:19:22;9.40;99.90
14397;DHT22;50653;47.810;13.022;2023-11-21T02:21:54;9.40;99.90
14397;DHT22;50653;47.810;13.022;2023-11-21T02:24:21;9.30;99.90
14397;DHT22;50653;47.810;13.022;2023-11-21T02:26:50;9.30;99.90
14397;DHT22;50653;47.810;13.022;2023-11-21T02:29:19;9.40;99.90
14397;DHT22;50653;47.810;13.022;2023-11-21T02:31:51;9.20;99.90
14397;DHT22;50653;47.810;13.022;2023-11-21T02:34:17;9.30;99.90
14397;DHT22;50653;47.810;13.022;2023-11-21T02:36:44;9.40;99.90
14397;DHT22;50653;47.810;13.022;2023-11-21T02:39:11;9.30;99.90
14397;DHT22;50653;47.810;13.022;2023-11-21T02:41:37;9.30;99.90
14397;DHT22;50653;47.810;13.022;2023-11-21T02:44:05;9.20;99.90
14397;DHT22;50653;47.810;13.022;2023-11-21T02:46:35;9.20;99.90
14397;DHT22;50653;47.810;13.022;2023-11-21T02:49:04;9.20;99.90
14397;DHT22;50653;47.810;13.022;2023-11-21T02:51:33;9.10;99.90
14397;DHT22;50653;47.810;13.022;2023-11-21T02:54:00;9.10;99.90
14397;DHT22;50653;47.810;13.022;2023-11-21T02:56:28;9.20;99.90
14397;DHT22;50653;47.810;13.022;2023-11-21T02:58:57;9.10;99.90
14397;DHT22;50653;47.810;13.022;2023-11-21T03:01:23;8.90;99.90
14397;DHT22;50653;47.810;13.022;2023-11-21T03:03:51;9.00;99.90
14397;DHT22;50653;47.810;13.022;2023-11-21T03:06:20;8.90;99.90
14397;DHT22;50653;47.810;13.022;2023-11-21T03:08:46;8.80;99.90
14397;DHT22;50653;47.810;13.022;2023-11-21T03:11:13;8.70;99.90
14397;DHT22;50653;47.810;13.022;2023-11-21T03:13:42;8.70;99.90
14397;DHT22;50653;47.810;13.022;2023-11-21T03:16:09;8.70;99.90
14397;DHT22;50653;47.810;13.022;2023-11-21T03:18:36;8.70;99.90
14397;DHT22;50653;47.810;13.022;2023-11-21T03:21:03;8.70;99.90
14397;DHT22;50653;47.810;13.022;2023-11-21T03:23:29;8.50;99.90
14397;DHT22;50653;47.810;13.022;2023-11-21T03:25:55;8.60;99.90
14397;DHT22;50653;47.810;13.022;2023-11-21T03:28:21;8.60;99.90
14397;DHT22;50653;47.810;13.022;2023-11-21T03:30:46;8.70;99.90
14397;DHT22;50653;47.810;13.022;2023-11-21T03:33:12;8.60;99.90
14397;DHT22;50653;47.810;13.022;2023-11-21T03:35:38;8.70;99.90
14397;DHT22;50653;47.810;13.022;2023-11-21T03:38:04;8.70;99.90
14397;DHT22;50653;47.810;13.022;2023-11-21T03:40:30;8.70;99.90
14397;DHT22;50653;47.810;13.022;2023-11-21T03:42:57;8.60;99.90
14397;DHT22;50653;47.810;13.022;2023-11-21T03:45:24;8.70;99.90
14397;DHT22;50653;47.810;13.022;2023-11-21T03:47:50;8.90;99.90
14397;DHT22;50653;47.810;13.022;2023-11-21T03:50:15;9.00;99.90
14397;DHT22;50653;47.810;13.022;2023-11-21T03:52:43;9.00;99.90
14397;DHT22;50653;47.810;13.022;2023-11-21T03:55:10;8.80;99.90
14397;DHT22;50653;47.810;13.022;2023-11-21T03:57:36;8.80;99.90
14397;DHT22;50653;47.810;13.022;2023-11-21T04:00:03;8.70;99.90
14397;DHT22;50653;47.810;13.022;2023-11-21T04:02:37;8.70;99.90
14397;DHT22;50653;47.810;13.022;2023-11-21T04:05:03;8.90;99.90
14397;DHT22;50653;47.810;13.022;2023-11-21T04:07:30;8.90;99.90
14397;DHT22;50653;47.810;13.022;2023-11-21T04:09:56;8.90;99.90
14397;DHT22;50653;47.810;13.022;2023-11-21T04:12:22;8.90;99.90
14397;DHT22;50653;47.810;13.022;2023-11-21T04:14:48;8.90;99.90
14397;DHT22;50653;47.810;13.022;2023-11-21T04:17:13;8.90;99.90
14397;DHT22;50653;47.810;13.022;2023-11-21T04:19:39;8.90;99.90
14397;DHT22;50653;47.810;13.022;2023-11-21T04:22:05;8.90;99.90
14397;DHT22;50653;47.810;13.022;2023-11-21T04:24:30;8.90;99.90
14397;DHT22;50653;47.810;13.022;2023-11-21T04:26:56;8.90;99.90
14397;DHT22;50653;47.810;13.022;2023-11-21T04:29:22;8.90;99.90
14397;DHT22;50653;47.810;13.022;2023-11-21T04:31:48;8.90;99.90
14397;DHT22;50653;47.810;13.022;2023-11-21T04:34:15;8.90;99.90
14397;DHT22;50653;47.810;13.022;2023-11-21T04:36:40;8.90;99.90
14397;DHT22;50653;47.810;13.022;2023-11-21T04:39:06;8.90;99.90
14397;DHT22;50653;47.810;13.022;2023-11-21T04:41:32;8.90;99.90
14397;DHT22;50653;47.810;13.022;2023-11-21T04:43:58;8.90;99.90
14397;DHT22;50653;47.810;13.022;2023-11-21T04:46:26;8.90;99.90
14397;DHT22;50653;47.810;13.022;2023-11-21T04:48:52;8.80;99.90
14397;DHT22;50653;47.810;13.022;2023-11-21T04:51:18;8.70;99.90
14397;DHT22;50653;47.810;13.022;2023-11-21T04:53:44;8.70;99.90
14397;DHT22;50653;47.810;13.022;2023-11-21T04:56:09;8.70;99.90
14397;DHT22;50653;47.810;13.022;2023-11-21T04:58:35;8.80;99.90
14397;DHT22;50653;47.810;13.022;2023-11-21T05:01:01;8.70;99.90
14397;DHT22;50653;47.810;13.022;2023-11-21T05:03:27;8.70;99.90
14397;DHT22;50653;47.810;13.022;2023-11-21T05:05:55;8.70;99.90
14397;DHT22;50653;47.810;13.022;2023-11-21T05:08:21;8.70;99.90
14397;DHT22;50653;47.810;13.022;2023-11-21T05:10:48;8.70;99.90
14397;DHT22;50653;47.810;13.022;2023-11-21T05:13:14;8.70;99.90
14397;DHT22;50653;47.810;13.022;2023-11-21T05:15:43;8.70;99.90
14397;DHT22;50653;47.810;13.022;2023-11-21T05:18:09;8.70;99.90
14397;DHT22;50653;47.810;13.022;2023-11-21T05:20:35;8.60;99.90
14397;DHT22;50653;47.810;13.022;2023-11-21T05:23:01;8.60;99.90
14397;DHT22;50653;47.810;13.022;2023-11-21T05:25:27;8.70;99.90
14397;DHT22;50653;47.810;13.022;2023-11-21T05:27:53;8.60;99.90
14397;DHT22;50653;47.810;13.022;2023-11-21T05:30:21;8.60;99.90
14397;DHT22;50653;47.810;13.022;2023-11-21T05:32:47;8.50;99.90
14397;DHT22;50653;47.810;13.022;2023-11-21T05:35:13;8.60;99.90
14397;DHT22;50653;47.810;13.022;2023-11-21T05:37:42;8.70;99.90
14397;DHT22;50653;47.810;13.022;2023-11-21T05:40:08;8.70;99.90
14397;DHT22;50653;47.810;13.022;2023-11-21T05:42:35;8.60;99.90
14397;DHT22;50653;47.810;13.022;2023-11-21T05:45:01;8.60;99.90
14397;DHT22;50653;47.810;13.022;2023-11-21T05:47:41;8.60;99.90
14397;DHT22;50653;47.810;13.022;2023-11-21T05:50:08;8.60;99.90
14397;DHT22;50653;47.810;13.022;2023-11-21T05:52:41;8.50;99.90
14397;DHT22;50653;47.810;13.022;2023-11-21T05:55:08;8.50;99.90
14397;DHT22;50653;47.810;13.022;2023-11-21T05:57:34;8.50;99.90
14397;DHT22;50653;47.810;13.022;2023-11-21T06:00:07;8.50;99.90
14397;DHT22;50653;47.810;13.022;2023-11-21T06:02:40;8.50;99.90
14397;DHT22;50653;47.810;13.022;2023-11-21T06:05:09;8.50;99.90
14397;DHT22;50653;47.810;13.022;2023-11-21T06:07:37;8.40;99.90
14397;DHT22;50653;47.810;13.022;2023-11-21T06:10:04;8.50;99.90
14397;DHT22;50653;47.810;13.022;2023-11-21T06:12:32;8.40;99.90
14397;DHT22;50653;47.810;13.022;2023-11-21T06:15:02;8.30;99.90
14397;DHT22;50653;47.810;13.022;2023-11-21T06:17:33;8.40;99.90
14397;DHT22;50653;47.810;13.022;2023-11-21T06:20:02;8.40;99.90
14397;DHT22;50653;47.810;13.022;2023-11-21T06:22:44;8.50;99.90
14397;DHT22;50653;47.810;13.022;2023-11-21T06:25:11;8.50;99.90
14397;DHT22;50653;47.810;13.022;2023-11-21T06:27:43;8.60;99.90
14397;DHT22;50653;47.810;13.022;2023-11-21T06:30:10;8.60;99.90
14397;DHT22;50653;47.810;13.022;2023-11-21T06:32:39;8.50;99.90
14397;DHT22;50653;47.810;13.022;2023-11-21T06:35:06;8.50;99.90
14397;DHT22;50653;47.810;13.022;2023-11-21T06:37:32;8.50;99.90
14397;DHT22;50653;47.810;13.022;2023-11-21T06:40:01;8.50;99.90
14397;DHT22;50653;47.810;13.022;2023-11-21T06:42:29;8.60;99.90
14397;DHT22;50653;47.810;13.022;2023-11-21T06:44:55;8.50;99.90
14397;DHT22;50653;47.810;13.022;2023-11-21T06:47:23;8.60;99.90
14397;DHT22;50653;47.810;13.022;2023-11-21T06:49:52;8.70;99.90
14397;DHT22;50653;47.810;13.022;2023-11-21T06:52:19;8.70;99.90
14397;DHT22;50653;47.810;13.022;2023-11-21T06:54:45;8.60;99.90
14397;DHT22;50653;47.810;13.022;2023-11-21T06:57:11;8.60;99.90
14397;DHT22;50653;47.810;13.022;2023-11-21T06:59:37;8.60;99.90
14397;DHT22;50653;47.810;13.022;2023-11-21T07:02:03;8.70;99.90
14397;DHT22;50653;47.810;13.022;2023-11-21T07:04:35;8.50;99.90
14397;DHT22;50653;47.810;13.022;2023-11-21T07:07:02;8.50;99.90
14397;DHT22;50653;47.810;13.022;2023-11-21T07:09:29;8.60;99.90
14397;DHT22;50653;47.810;13.022;2023-11-21T07:11:55;8.60;99.90
14397;DHT22;50653;47.810;13.022;2023-11-21T07:14:21;8.60;99.90
14397;DHT22;50653;47.810;13.022;2023-11-21T07:16:47;8.70;99.90
14397;DHT22;50653;47.810;13.022;2023-11-21T07:19:13;8.70;99.90
14397;DHT22;50653;47.810;13.022;2023-11-21T07:21:42;8.60;99.90
14397;DHT22;50653;47.810;13.022;2023-11-21T07:24:08;8.70;99.90
14397;DHT22;50653;47.810;13.022;2023-11-21T07:26:35;8.60;99.90
14397;DHT22;50653;47.810;13.022;2023-11-21T07:29:02;8.70;99.90
14397;DHT22;50653;47.810;13.022;2023-11-21T07:31:28;8.70;99.90
14397;DHT22;50653;47.810;13.022;2023-11-21T07:33:54;8.70;99.90
14397;DHT22;50653;47.810;13.022;2023-11-21T07:36:23;8.80;99.90
14397;DHT22;50653;47.810;13.022;2023-11-21T07:38:49;8.80;99.90
14397;DHT22;50653;47.810;13.022;2023-11-21T07:41:16;8.80;99.90
14397;DHT22;50653;47.810;13.022;2023-11-21T07:43:43;8.80;99.90
14397;DHT22;50653;47.810;13.022;2023-11-21T07:46:10;8.80;99.90
14397;DHT22;50653;47.810;13.022;2023-11-21T07:48:38;9.00;99.90
14397;DHT22;50653;47.810;13.022;2023-11-21T07:51:04;8.80;99.90
14397;DHT22;50653;47.810;13.022;2023-11-21T07:53:30;8.80;99.90
14397;DHT22;50653;47.810;13.022;2023-11-21T07:55:58;8.80;99.90
14397;DHT22;50653;47.810;13.022;2023-11-21T07:58:23;8.80;99.90
14397;DHT22;50653;47.810;13.022;2023-11-21T08:00:50;8.70;99.90
14397;DHT22;50653;47.810;13.022;2023-11-21T08:03:16;8.80;99.90
14397;DHT22;50653;47.810;13.022;2023-11-21T08:05:42;8.70;99.90
14397;DHT22;50653;47.810;13.022;2023-11-21T08:08:08;8.70;99.90
14397;DHT22;50653;47.810;13.022;2023-11-21T08:10:34;8.80;99.90
14397;DHT22;50653;47.810;13.022;2023-11-21T08:13:01;8.70;99.90
14397;DHT22;50653;47.810;13.022;2023-11-21T08:15:27;8.70;99.90
14397;DHT22;50653;47.810;13.022;2023-11-21T08:17:53;8.60;99.90
14397;DHT22;50653;47.810;13.022;2023-11-21T08:20:19;8.60;99.90
14397;DHT22;50653;47.810;13.022;2023-11-21T08:22:45;8.70;99.90
14397;DHT22;50653;47.810;13.022;2023-11-21T08:25:11;8.70;99.90
14397;DHT22;50653;47.810;13.022;2023-11-21T08:27:37;8.60;99.90
14397;DHT22;50653;47.810;13.022;2023-11-21T08:30:03;8.60;99.90
14397;DHT22;50653;47.810;13.022;2023-11-21T08:32:29;8.50;99.90
14397;DHT22;50653;47.810;13.022;2023-11-21T08:35:01;8.50;99.90
14397;DHT22;50653;47.810;13.022;2023-11-21T08:37:30;8.50;99.90
14397;DHT22;50653;47.810;13.022;2023-11-21T08:39:58;8.60;99.90
14397;DHT22;50653;47.810;13.022;2023-11-21T08:42:27;8.70;99.90
14397;DHT22;50653;47.810;13.022;2023-11-21T08:44:56;8.70;99.90
14397;DHT22;50653;47.810;13.022;2023-11-21T08:47:23;8.60;99.90
14397;DHT22;50653;47.810;13.022;2023-11-21T08:49:50;8.70;99.90
14397;DHT22;50653;47.810;13.022;2023-11-21T08:52:19;8.70;99.90
14397;DHT22;50653;47.810;13.022;2023-11-21T08:54:51;8.70;99.90
14397;DHT22;50653;47.810;13.022;2023-11-21T08:57:24;8.70;99.90
14397;DHT22;50653;47.810;13.022;2023-11-21T08:59:50;8.80;99.90
14397;DHT22;50653;47.810;13.022;2023-11-21T09:02:21;8.90;99.90
14397;DHT22;50653;47.810;13.022;2023-11-21T09:04:49;8.80;99.90
14397;DHT22;50653;47.810;13.022;2023-11-21T09:07:16;8.80;99.90
14397;DHT22;50653;47.810;13.022;2023-11-21T09:09:41;8.80;99.90
14397;DHT22;50653;47.810;13.022;2023-11-21T09:12:07;8.80;99.90
14397;DHT22;50653;47.810;13.022;2023-11-21T09:14:33;8.90;99.90
14397;DHT22;50653;47.810;13.022;2023-11-21T09:16:59;8.90;99.90
14397;DHT22;50653;47.810;13.022;2023-11-21T09:19:24;8.90;99.90
14397;DHT22;50653;47.810;13.022;2023-11-21T09:21:50;8.90;99.90
14397;DHT22;50653;47.810;13.022;2023-11-21T09:24:16;8.90;99.90
14397;DHT22;50653;47.810;13.022;2023-11-21T09:26:41;9.10;99.90
14397;DHT22;50653;47.810;13.022;2023-11-21T09:29:08;9.10;99.90
14397;DHT22;50653;47.810;13.022;2023-11-21T09:31:33;9.10;99.90
14397;DHT22;50653;47.810;13.022;2023-11-21T09:33:59;9.10;99.90
14397;DHT22;50653;47.810;13.022;2023-11-21T09:36:25;9.20;99.90
14397;DHT22;50653;47.810;13.022;2023-11-21T09:38:53;9.20;99.90
14397;DHT22;50653;47.810;13.022;2023-11-21T09:41:33;9.20;99.90
14397;DHT22;50653;47.810;13.022;2023-11-21T09:44:02;9.30;99.90
14397;DHT22;50653;47.810;13.022;2023-11-21T09:46:33;9.30;99.90
14397;DHT22;50653;47.810;13.022;2023-11-21T09:49:00;9.40;99.90
14397;DHT22;50653;47.810;13.022;2023-11-21T09:51:31;9.30;99.90
14397;DHT22;50653;47.810;13.022;2023-11-21T09:53:59;9.20;99.90
14397;DHT22;50653;47.810;13.022;2023-11-21T09:56:32;9.20;99.90
14397;DHT22;50653;47.810;13.022;2023-11-21T09:58:58;9.20;99.90
14397;DHT22;50653;47.810;13.022;2023-11-21T10:01:29;9.10;99.90
14397;DHT22;50653;47.810;13.022;2023-11-21T10:03:56;9.10;99.90
14397;DHT22;50653;47.810;13.022;2023-11-21T10:06:22;9.10;99.90
14397;DHT22;50653;47.810;13.022;2023-11-21T10:08:51;9.10;99.90
14397;DHT22;50653;47.810;13.022;2023-11-21T10:11:17;9.00;99.90
14397;DHT22;50653;47.810;13.022;2023-11-21T10:13:45;9.00;99.90
14397;DHT22;50653;47.810;13.022;2023-11-21T10:16:14;9.00;99.90
14397;DHT22;50653;47.810;13.022;2023-11-21T10:18:58;9.00;99.90
14397;DHT22;50653;47.810;13.022;2023-11-21T10:21:33;9.00;99.90
14397;DHT22;50653;47.810;13.022;2023-11-21T10:24:11;9.00;99.90
14397;DHT22;50653;47.810;13.022;2023-11-21T10:26:38;9.10;99.90
14397;DHT22;50653;47.810;13.022;2023-11-21T10:29:04;9.20;99.90
14397;DHT22;50653;47.810;13.022;2023-11-21T10:31:30;9.20;99.90
14397;DHT22;50653;47.810;13.022;2023-11-21T10:34:16;9.30;99.90
14397;DHT22;50653;47.810;13.022;2023-11-21T10:36:43;9.30;99.90
14397;DHT22;50653;47.810;13.022;2023-11-21T10:39:13;9.40;99.90
14397;DHT22;50653;47.810;13.022;2023-11-21T10:41:39;9.40;99.90
14397;DHT22;50653;47.810;13.022;2023-11-21T10:44:06;9.30;99.90
14397;DHT22;50653;47.810;13.022;2023-11-21T10:46:34;9.40;99.90
14397;DHT22;50653;47.810;13.022;2023-11-21T10:49:06;9.40;99.90
14397;DHT22;50653;47.810;13.022;2023-11-21T10:51:36;9.40;99.90
14397;DHT22;50653;47.810;13.022;2023-11-21T10:54:12;9.50;99.90
14397;DHT22;50653;47.810;13.022;2023-11-21T10:56:49;9.40;99.90
14397;DHT22;50653;47.810;13.022;2023-11-21T10:59:19;9.50;99.90
14397;DHT22;50653;47.810;13.022;2023-11-21T11:01:50;9.50;99.90
14397;DHT22;50653;47.810;13.022;2023-11-21T11:04:19;9.50;99.90
14397;DHT22;50653;47.810;13.022;2023-11-21T11:06:48;9.60;99.90
14397;DHT22;50653;47.810;13.022;2023-11-21T11:09:17;9.60;99.90
14397;DHT22;50653;47.810;13.022;2023-11-21T11:11:43;9.60;99.90
14397;DHT22;50653;47.810;13.022;2023-11-21T11:14:12;9.70;99.90
14397;DHT22;50653;47.810;13.022;2023-11-21T11:16:41;9.60;99.90
14397;DHT22;50653;47.810;13.022;2023-11-21T11:19:10;9.70;99.90
14397;DHT22;50653;47.810;13.022;2023-11-21T11:22:14;9.70;99.90
14397;DHT22;50653;47.810;13.022;2023-11-21T11:27:52;9.80;99.90
14397;DHT22;50653;47.810;13.022;2023-11-21T11:30:45;9.80;99.90
14397;DHT22;50653;47.810;13.022;2023-11-21T11:33:36;9.80;99.90
14397;DHT22;50653;47.810;13.022;2023-11-21T11:38:39;9.90;99.90
14397;DHT22;50653;47.810;13.022;2023-11-21T11:41:10;9.90;99.90
14397;DHT22;50653;47.810;13.022;2023-11-21T11:43:36;9.90;99.90
14397;DHT22;50653;47.810;13.022;2023-11-21T11:46:11;9.90;99.90
14397;DHT22;50653;47.810;13.022;2023-11-21T11:48:40;9.90;99.90
14397;DHT22;50653;47.810;13.022;2023-11-21T11:51:10;10.00;99.90
14397;DHT22;50653;47.810;13.022;2023-11-21T11:53:39;10.00;99.90
14397;DHT22;50653;47.810;13.022;2023-11-21T11:58:57;10.10;99.90
14397;DHT22;50653;47.810;13.022;2023-11-21T12:01:25;10.10;99.90
14397;DHT22;50653;47.810;13.022;2023-11-21T12:07:02;10.00;99.90
14397;DHT22;50653;47.810;13.022;2023-11-21T12:09:29;10.10;99.90
14397;DHT22;50653;47.810;13.022;2023-11-21T12:11:57;10.10;99.90
14397;DHT22;50653;47.810;13.022;2023-11-21T12:14:23;10.10;99.90
14397;DHT22;50653;47.810;13.022;2023-11-21T12:16:49;10.10;99.90
14397;DHT22;50653;47.810;13.022;2023-11-21T12:19:14;10.20;99.90
14397;DHT22;50653;47.810;13.022;2023-11-21T12:21:40;10.20;99.90
14397;DHT22;50653;47.810;13.022;2023-11-21T12:24:07;10.20;99.90
14397;DHT22;50653;47.810;13.022;2023-11-21T12:26:36;10.20;99.90
14397;DHT22;50653;47.810;13.022;2023-11-21T12:29:02;10.20;99.90
14397;DHT22;50653;47.810;13.022;2023-11-21T12:31:30;10.20;99.90
14397;DHT22;50653;47.810;13.022;2023-11-21T12:33:56;10.30;99.90
14397;DHT22;50653;47.810;13.022;2023-11-21T12:36:23;10.30;99.90
14397;DHT22;50653;47.810;13.022;2023-11-21T12:38:49;10.20;99.90
14397;DHT22;50653;47.810;13.022;2023-11-21T12:41:16;10.10;99.90
14397;DHT22;50653;47.810;13.022;2023-11-21T12:43:42;10.10;99.90
14397;DHT22;50653;47.810;13.022;2023-11-21T12:46:10;10.10;99.90
14397;DHT22;50653;47.810;13.022;2023-11-21T12:48:39;10.10;99.90
14397;DHT22;50653;47.810;13.022;2023-11-21T12:51:08;10.10;99.90
14397;DHT22;50653;47.810;13.022;2023-11-21T12:53:35;10.00;99.90
14397;DHT22;50653;47.810;13.022;2023-11-21T12:56:11;10.10;99.90
14397;DHT22;50653;47.810;13.022;2023-11-21T12:58:38;10.10;99.90
14397;DHT22;50653;47.810;13.022;2023-11-21T13:01:07;10.00;99.90
14397;DHT22;50653;47.810;13.022;2023-11-21T13:03:45;10.00;99.90
14397;DHT22;50653;47.810;13.022;2023-11-21T13:06:14;10.00;99.90
14397;DHT22;50653;47.810;13.022;2023-11-21T13:08:40;10.00;99.90
14397;DHT22;50653;47.810;13.022;2023-11-21T13:11:06;10.00;99.90
14397;DHT22;50653;47.810;13.022;2023-11-21T13:13:32;9.90;99.90
14397;DHT22;50653;47.810;13.022;2023-11-21T13:16:02;9.90;99.90
14397;DHT22;50653;47.810;13.022;2023-11-21T13:18:30;9.90;99.90
14397;DHT22;50653;47.810;13.022;2023-11-21T13:21:02;9.90;99.90
14397;DHT22;50653;47.810;13.022;2023-11-21T13:23:43;9.90;99.90
14397;DHT22;50653;47.810;13.022;2023-11-21T13:26:11;9.90;99.90
14397;DHT22;50653;47.810;13.022;2023-11-21T13:28:37;9.80;99.90
14397;DHT22;50653;47.810;13.022;2023-11-21T13:31:04;9.80;99.90
14397;DHT22;50653;47.810;13.022;2023-11-21T13:33:47;9.70;99.90
14397;DHT22;50653;47.810;13.022;2023-11-21T13:36:21;9.70;99.90
14397;DHT22;50653;47.810;13.022;2023-11-21T13:38:50;9.60;99.90
14397;DHT22;50653;47.810;13.022;2023-11-21T13:41:35;9.50;99.90
14397;DHT22;50653;47.810;13.022;2023-11-21T13:44:03;9.10;99.90
14397;DHT22;50653;47.810;13.022;2023-11-21T13:46:41;9.10;99.90
14397;DHT22;50653;47.810;13.022;2023-11-21T13:49:07;9.10;99.90
14397;DHT22;50653;47.810;13.022;2023-11-21T13:51:36;9.10;99.90
14397;DHT22;50653;47.810;13.022;2023-11-21T13:54:06;9.20;99.90
14397;DHT22;50653;47.810;13.022;2023-11-21T13:56:35;9.20;99.90
14397;DHT22;50653;47.810;13.022;2023-11-21T13:59:01;9.10;99.90
14397;DHT22;50653;47.810;13.022;2023-11-21T14:01:35;9.10;99.90
14397;DHT22;50653;47.810;13.022;2023-11-21T14:04:18;9.10;99.90
14397;DHT22;50653;47.810;13.022;2023-11-21T14:06:48;9.20;99.90
14397;DHT22;50653;47.810;13.022;2023-11-21T14:09:19;9.20;99.90
14397;DHT22;50653;47.810;13.022;2023-11-21T14:11:57;9.20;99.90
14397;DHT22;50653;47.810;13.022;2023-11-21T14:14:25;9.20;99.90
14397;DHT22;50653;47.810;13.022;2023-11-21T14:16:51;9.20;99.90
14397;DHT22;50653;47.810;13.022;2023-11-21T14:19:17;9.20;99.90
14397;DHT22;50653;47.810;13.022;2023-11-21T14:21:44;9.20;99.90
14397;DHT22;50653;47.810;13.022;2023-11-21T14:24:11;9.20;99.90
14397;DHT22;50653;47.810;13.022;2023-11-21T14:26:41;9.20;99.90
14397;DHT22;50653;47.810;13.022;2023-11-21T14:29:09;9.20;99.90
14397;DHT22;50653;47.810;13.022;2023-11-21T14:31:36;9.10;99.90
14397;DHT22;50653;47.810;13.022;2023-11-21T14:34:02;9.10;99.90
14397;DHT22;50653;47.810;13.022;2023-11-21T14:36:28;9.10;99.90
14397;DHT22;50653;47.810;13.022;2023-11-21T14:38:54;9.10;99.90
14397;DHT22;50653;47.810;13.022;2023-11-21T14:41:20;9.00;99.90
14397;DHT22;50653;47.810;13.022;2023-11-21T14:43:45;9.10;99.90
14397;DHT22;50653;47.810;13.022;2023-11-21T14:46:15;8.80;99.90
14397;DHT22;50653;47.810;13.022;2023-11-21T14:48:42;8.80;99.90
14397;DHT22;50653;47.810;13.022;2023-11-21T14:51:11;8.70;99.90
14397;DHT22;50653;47.810;13.022;2023-11-21T14:53:58;8.60;99.90
14397;DHT22;50653;47.810;13.022;2023-11-21T14:56:33;8.60;99.90
14397;DHT22;50653;47.810;13.022;2023-11-21T14:59:01;8.60;99.90
14397;DHT22;50653;47.810;13.022;2023-11-21T15:01:40;8.70;99.90
14397;DHT22;50653;47.810;13.022;2023-11-21T15:04:14;8.70;99.90
14397;DHT22;50653;47.810;13.022;2023-11-21T15:06:58;8.70;99.90
14397;DHT22;50653;47.810;13.022;2023-11-21T15:09:24;8.70;99.90
14397;DHT22;50653;47.810;13.022;2023-11-21T15:12:00;8.70;99.90
14397;DHT22;50653;47.810;13.022;2023-11-21T15:14:50;8.70;99.90
14397;DHT22;50653;47.810;13.022;2023-11-21T15:17:20;8.80;99.90
14397;DHT22;50653;47.810;13.022;2023-11-21T15:19:51;8.80;99.90
14397;DHT22;50653;47.810;13.022;2023-11-21T15:22:17;8.80;99.90
14397;DHT22;50653;47.810;13.022;2023-11-21T15:24:43;8.80;99.90
14397;DHT22;50653;47.810;13.022;2023-11-21T15:27:12;8.70;99.90
14397;DHT22;50653;47.810;13.022;2023-11-21T15:29:38;8.80;99.90
14397;DHT22;50653;47.810;13.022;2023-11-21T15:32:09;8.70;99.90
14397;DHT22;50653;47.810;13.022;2023-11-21T15:34:35;8.70;99.90
14397;DHT22;50653;47.810;13.022;2023-11-21T15:37:02;8.70;99.90
14397;DHT22;50653;47.810;13.022;2023-11-21T15:39:29;8.70;99.90
14397;DHT22;50653;47.810;13.022;2023-11-21T15:41:58;8.70;99.90
14397;DHT22;50653;47.810;13.022;2023-11-21T15:44:25;8.80;99.90
14397;DHT22;50653;47.810;13.022;2023-11-21T15:46:52;8.80;99.90
14397;DHT22;50653;47.810;13.022;2023-11-21T15:49:18;8.70;99.90